Time;durP1;ratioP1;P1;durP2;ratioP2;P2;SDS_P1;SDS_P2;PMS_P1;PMS_P2;Temp;Humidity;BMP_temperature;BMP_pressure;BME280_temperature;BME280_humidity;BME280_pressure;Samples;Min_cycle;Max_cycle;Signal;HPM_P1;HPM_P2
2024/01/05 00:00:08;;;;;;;7.90;5.05;;;;;;;-20.11;78.27;98783.16;5017960;28;20057;-68
2024/01/05 00:02:36;;;;;;;7.18;5.03;;;;;;;-20.15;77.73;98785.72;5017923;28;20094;-70
2024/01/05 00:05:01;;;;;;;7.77;4.90;;;;;;;-20.14;77.58;98779.84;5001755;28;20074;-68
2024/01/05 00:07:29;;;;;;;6.75;4.35;;;;;;;-20.14;77.75;98777.31;5002441;28;20126;-68
2024/01/05 00:09:54;;;;;;;7.45;5.10;;;;;;;-20.11;77.21;98779.81;5001985;28;20120;-68
2024/01/05 00:12:21;;;;;;;9.82;5.65;;;;;;;-20.11;76.77;98782.34;5001788;28;20144;-69
2024/01/05 00:14:47;;;;;;;9.10;4.90;;;;;;;-20.16;76.54;98772.25;5017301;28;20140;-69
2024/01/05 00:17:13;;;;;;;7.60;4.70;;;;;;;-20.18;76.57;98775.59;5099062;27;20059;-68
2024/01/05 00:19:41;;;;;;;7.45;5.30;;;;;;;-20.16;76.38;98776.47;5098452;27;20042;-68
2024/01/05 00:22:08;;;;;;;10.82;4.57;;;;;;;-20.20;75.81;98778.13;5098929;27;20202;-68
2024/01/05 00:24:36;;;;;;;7.45;4.90;;;;;;;-20.20;75.55;98780.63;5081999;27;20055;-68
2024/01/05 00:27:03;;;;;;;8.02;4.40;;;;;;;-20.29;75.25;98784.84;5057467;28;20085;-68
2024/01/05 00:29:29;;;;;;;5.15;3.63;;;;;;;-20.33;75.15;98783.13;5014703;28;20504;-68
2024/01/05 00:31:55;;;;;;;9.27;6.00;;;;;;;-20.38;75.01;98777.19;4982159;28;20041;-69
2024/01/05 00:34:22;;;;;;;4.80;4.07;;;;;;;-20.46;74.66;98773.81;4977967;28;20054;-70
2024/01/05 00:36:49;;;;;;;10.95;4.65;;;;;;;-20.49;75.00;98769.59;4978717;28;20065;-69
2024/01/05 00:39:16;;;;;;;5.72;4.30;;;;;;;-20.48;74.99;98773.81;4978538;28;20137;-70
2024/01/05 00:41:46;;;;;;;8.82;4.45;;;;;;;-20.46;75.01;98778.88;4978411;28;20560;-70
2024/01/05 00:44:14;;;;;;;9.27;4.63;;;;;;;-20.43;75.01;98779.69;4978550;28;20061;-69
2024/01/05 00:46:41;;;;;;;6.10;4.15;;;;;;;-20.49;75.15;98784.72;4962280;28;20037;-69
2024/01/05 00:49:08;;;;;;;9.80;5.05;;;;;;;-20.55;75.00;98777.13;4946125;28;20080;-69
2024/01/05 00:51:34;;;;;;;13.18;4.93;;;;;;;-20.61;75.34;98782.13;4962159;28;20053;-70
2024/01/05 00:54:00;;;;;;;5.38;3.80;;;;;;;-20.65;75.08;98774.56;4977893;28;20501;-70
2024/01/05 00:56:28;;;;;;;6.70;4.18;;;;;;;-20.66;75.30;98778.75;4994460;28;20443;-69
2024/01/05 00:58:54;;;;;;;7.82;3.95;;;;;;;-20.64;76.09;98771.19;4994108;28;20084;-69
2024/01/05 01:01:19;;;;;;;6.00;4.77;;;;;;;-20.63;76.03;98777.94;4978466;28;20528;-69
2024/01/05 01:03:46;;;;;;;5.65;4.00;;;;;;;-20.63;76.29;98770.38;4991298;28;20062;-70
2024/01/05 01:06:11;;;;;;;9.30;4.93;;;;;;;-20.62;76.26;98775.41;5065871;27;20047;-70
2024/01/05 01:08:37;;;;;;;6.43;4.07;;;;;;;-20.62;76.33;98777.94;5098081;27;20047;-69
2024/01/05 01:11:03;;;;;;;7.47;4.60;;;;;;;-20.63;75.94;98777.94;5114889;27;20075;-70
2024/01/05 01:13:31;;;;;;;5.47;3.92;;;;;;;-20.58;76.97;98773.72;5115099;27;20066;-70
2024/01/05 01:15:57;;;;;;;12.07;5.05;;;;;;;-20.62;76.62;98769.53;5116678;27;20054;-70
2024/01/05 01:18:23;;;;;;;6.10;3.77;;;;;;;-20.57;77.14;98776.25;5077178;28;20058;-70
2024/01/05 01:20:49;;;;;;;11.82;3.80;;;;;;;-20.56;76.85;98767.88;5094812;28;20058;-70
2024/01/05 01:23:15;;;;;;;9.33;4.37;;;;;;;-20.52;77.09;98772.09;5060070;28;20044;-69
2024/01/05 01:25:41;;;;;;;3.37;3.07;;;;;;;-20.48;76.66;98778.84;5059695;28;20159;-69
2024/01/05 01:28:08;;;;;;;8.10;3.97;;;;;;;-20.45;76.51;98783.06;5073287;28;20377;-70
2024/01/05 01:30:34;;;;;;;7.78;4.63;;;;;;;-20.44;76.42;98772.97;5023440;28;20054;-70
2024/01/05 01:33:00;;;;;;;5.63;3.63;;;;;;;-20.42;75.81;98776.38;5056310;28;20116;-71
2024/01/05 01:35:25;;;;;;;5.27;3.70;;;;;;;-20.41;76.23;98780.56;5039691;28;20469;-71
2024/01/05 01:37:51;;;;;;;4.80;3.77;;;;;;;-20.41;76.02;98777.19;5073357;28;20040;-71
2024/01/05 01:40:18;;;;;;;8.27;3.93;;;;;;;-20.32;76.80;98777.22;5074039;28;20056;-71
2024/01/05 01:42:45;;;;;;;6.43;4.13;;;;;;;-20.38;76.72;98788.16;5040511;28;20052;-71
2024/01/05 01:45:12;;;;;;;8.55;3.72;;;;;;;-20.33;77.13;98783.13;5056687;28;20147;-72
2024/01/05 01:47:38;;;;;;;8.25;4.30;;;;;;;-20.34;76.96;98783.97;5040267;28;20048;-71
2024/01/05 01:50:06;;;;;;;5.78;4.38;;;;;;;-20.36;76.82;98783.09;5039643;28;20438;-71
2024/01/05 01:52:32;;;;;;;5.90;3.90;;;;;;;-20.43;77.19;98779.69;5056355;28;20149;-70
2024/01/05 01:54:58;;;;;;;6.22;3.65;;;;;;;-20.42;77.08;98783.09;5016652;28;20060;-70
2024/01/05 01:57:24;;;;;;;6.57;3.30;;;;;;;-20.42;76.53;98770.47;5020228;28;20049;-70
2024/01/05 01:59:50;;;;;;;12.60;4.10;;;;;;;-20.44;76.72;98777.16;5020119;28;20083;-67
2024/01/05 02:02:16;;;;;;;5.25;3.60;;;;;;;-20.46;76.57;98779.69;5019682;28;20371;-67
2024/01/05 02:04:42;;;;;;;7.17;3.67;;;;;;;-20.45;76.62;98786.44;5052531;28;20048;-67
2024/01/05 02:07:08;;;;;;;5.10;3.30;;;;;;;-20.43;76.71;98786.44;5019631;28;20044;-67
2024/01/05 02:09:34;;;;;;;4.78;3.78;;;;;;;-20.53;76.82;98772.94;5007122;28;20052;-68
2024/01/05 02:12:00;;;;;;;4.63;3.50;;;;;;;-20.44;77.38;98767.94;5035883;28;20115;-67
2024/01/05 02:14:27;;;;;;;6.47;4.40;;;;;;;-20.52;77.29;98769.56;5020056;28;20110;-69
2024/01/05 02:17:28;;;;;;;4.20;3.45;;;;;;;-20.34;77.77;98767.13;5042673;28;20491;-67
2024/01/05 02:19:55;;;;;;;6.38;3.60;;;;;;;-20.42;77.02;98775.50;5026040;28;20466;-68
2024/01/05 02:22:23;;;;;;;4.40;3.28;;;;;;;-20.40;77.15;98773.84;5060047;28;20064;-69
2024/01/05 02:24:49;;;;;;;5.93;3.80;;;;;;;-20.44;77.56;98772.97;5057184;28;20531;-70
2024/01/05 02:27:15;;;;;;;6.25;3.35;;;;;;;-20.52;77.57;98768.75;5038629;28;20135;-69
2024/01/05 02:29:41;;;;;;;5.90;3.27;;;;;;;-20.50;77.70;98777.16;5054842;28;20083;-69
2024/01/05 02:32:07;;;;;;;6.13;3.70;;;;;;;-20.43;78.13;98773.84;5040912;28;20052;-68
2024/01/05 02:34:33;;;;;;;9.60;4.68;;;;;;;-20.55;77.95;98773.75;5110685;28;20047;-68
2024/01/05 02:36:58;;;;;;;7.57;3.83;;;;;;;-20.46;78.48;98778.88;5077197;28;20475;-69
2024/01/05 02:39:24;;;;;;;6.43;3.60;;;;;;;-20.50;78.90;98783.03;5080715;28;20502;-68
2024/01/05 02:41:50;;;;;;;7.37;3.87;;;;;;;-20.46;79.39;98789.78;5097757;28;20051;-69
2024/01/05 02:44:15;;;;;;;5.43;3.10;;;;;;;-20.44;79.35;98794.84;5097510;28;20040;-67
2024/01/05 02:46:41;;;;;;;6.07;4.50;;;;;;;-20.45;78.90;98788.13;5114237;28;20520;-68
2024/01/05 02:49:07;;;;;;;6.17;3.80;;;;;;;-20.41;78.87;98793.19;5080682;28;20093;-69
2024/01/05 02:51:32;;;;;;;4.73;3.30;;;;;;;-20.38;79.20;98787.28;5097775;28;20063;-68
2024/01/05 02:53:58;;;;;;;9.33;4.07;;;;;;;-20.39;79.56;98786.47;5115349;28;20035;-69
2024/01/05 02:56:24;;;;;;;13.23;4.77;;;;;;;-20.37;78.92;98789.00;5082620;28;20054;-69
2024/01/05 02:58:54;;;;;;;11.13;4.88;;;;;;;-20.26;79.65;98783.16;5116118;28;20047;-68
2024/01/05 03:01:20;;;;;;;9.05;4.88;;;;;;;-20.31;79.16;98789.84;5081626;28;20078;-67
2024/01/05 03:03:46;;;;;;;6.77;4.60;;;;;;;-20.25;79.42;98786.53;5065112;28;20079;-68
2024/01/05 03:06:15;;;;;;;11.98;4.97;;;;;;;-20.19;79.16;98794.13;5081378;28;20164;-67
2024/01/05 03:08:41;;;;;;;8.70;5.03;;;;;;;-20.24;78.99;98790.72;5098362;28;20050;-68
2024/01/05 03:11:07;;;;;;;8.88;5.30;;;;;;;-20.23;78.55;98792.44;5097037;28;20479;-67
2024/01/05 03:13:33;;;;;;;9.33;5.00;;;;;;;-20.23;78.38;98788.19;5114930;28;20055;-67
2024/01/05 03:15:58;;;;;;;11.40;5.73;;;;;;;-20.26;77.82;98792.41;5114638;28;20047;-68
2024/01/05 03:18:24;;;;;;;8.67;5.43;;;;;;;-20.23;77.36;98789.91;5080852;28;20046;-67
2024/01/05 03:20:50;;;;;;;8.80;4.87;;;;;;;-20.24;76.98;98808.41;5083113;28;20044;-67
2024/01/05 03:23:16;;;;;;;8.57;4.73;;;;;;;-20.22;77.24;98791.59;5083866;28;20044;-67
2024/01/05 03:25:43;;;;;;;6.60;3.72;;;;;;;-20.18;78.02;98801.69;5100447;28;20035;-67
2024/01/05 03:28:10;;;;;;;9.60;4.60;;;;;;;-20.21;77.39;98795.78;5084472;28;20364;-67
2024/01/05 03:30:37;;;;;;;7.00;3.95;;;;;;;-20.16;76.93;98800.03;5099567;28;20040;-68
2024/01/05 03:33:03;;;;;;;8.95;5.25;;;;;;;-20.18;76.55;98799.19;5079825;28;20054;-68
2024/01/05 03:35:29;;;;;;;14.13;5.63;;;;;;;-20.19;76.37;98800.03;5063991;28;20048;-68
2024/01/05 03:37:56;;;;;;;8.40;4.47;;;;;;;-20.23;76.18;98788.19;5114190;28;21394;-68
2024/01/05 03:40:21;;;;;;;8.05;3.92;;;;;;;-20.25;77.26;98794.09;5079583;28;20044;-68
2024/01/05 03:42:47;;;;;;;19.87;4.93;;;;;;;-20.20;77.17;98803.38;5079390;28;20059;-68
2024/01/05 03:45:13;;;;;;;10.80;5.60;;;;;;;-20.17;77.04;98810.13;5113361;28;20073;-68
2024/01/05 03:47:39;;;;;;;11.07;5.13;;;;;;;-20.20;76.75;98797.50;5113322;28;20090;-68
2024/01/05 03:50:05;;;;;;;4.60;4.13;;;;;;;-20.18;76.33;98800.84;5112896;28;20053;-68
2024/01/05 03:52:33;;;;;;;13.00;4.38;;;;;;;-20.21;76.21;98814.31;5064508;28;20040;-68
2024/01/05 03:55:01;;;;;;;9.43;4.43;;;;;;;-20.22;75.69;98814.31;5096957;28;20492;-68
2024/01/05 03:57:28;;;;;;;14.50;5.07;;;;;;;-20.22;76.08;98809.25;5081551;28;20044;-69
2024/01/05 03:59:54;;;;;;;9.87;4.30;;;;;;;-20.21;76.14;98811.78;5105539;27;20043;-72
2024/01/05 04:02:19;;;;;;;6.27;4.43;;;;;;;-20.20;76.06;98817.69;5082614;27;20493;-68
2024/01/05 04:04:45;;;;;;;13.87;5.43;;;;;;;-20.21;76.05;98815.97;5133322;27;20503;-68
2024/01/05 04:07:11;;;;;;;8.37;4.47;;;;;;;-20.20;75.85;98808.41;5117275;27;20042;-69
2024/01/05 04:09:38;;;;;;;8.60;4.53;;;;;;;-20.20;75.73;98812.66;5116166;27;20562;-67
2024/01/05 04:12:06;;;;;;;6.07;3.67;;;;;;;-20.12;75.74;98805.88;5100783;27;20340;-67
2024/01/05 04:14:32;;;;;;;12.48;5.90;;;;;;;-20.20;75.49;98813.47;5134464;27;20043;-67
2024/01/05 04:16:58;;;;;;;8.90;4.43;;;;;;;-20.17;74.95;98822.75;5082437;27;20047;-66
2024/01/05 04:19:24;;;;;;;6.43;4.20;;;;;;;-20.17;75.05;98815.19;5133819;27;20043;-66
2024/01/05 04:21:50;;;;;;;8.93;4.47;;;;;;;-20.18;74.63;98816.00;5098877;27;20304;-66
2024/01/05 04:24:15;;;;;;;12.03;5.13;;;;;;;-20.21;74.51;98806.75;5098896;27;20494;-66
2024/01/05 04:26:41;;;;;;;10.23;5.07;;;;;;;-20.18;74.21;98816.84;5115729;27;20039;-66
2024/01/05 04:29:07;;;;;;;8.30;4.53;;;;;;;-20.17;74.46;98825.28;5082175;27;20039;-67
2024/01/05 04:31:32;;;;;;;9.40;5.83;;;;;;;-20.22;74.40;98812.63;5099445;27;20207;-68
2024/01/05 04:33:58;;;;;;;6.60;4.10;;;;;;;-20.15;74.36;98826.09;5135657;27;20475;-67
2024/01/05 04:36:24;;;;;;;12.17;5.67;;;;;;;-20.15;74.61;98831.16;5100406;27;20504;-68
2024/01/05 04:38:49;;;;;;;8.97;4.53;;;;;;;-20.17;74.45;98832.84;5116816;27;20049;-68
2024/01/05 04:41:16;;;;;;;6.07;4.80;;;;;;;-20.16;74.17;98826.97;5115778;27;20474;-68
2024/01/05 04:43:45;;;;;;;4.63;3.83;;;;;;;-20.13;74.11;98819.38;5115745;27;20583;-68
2024/01/05 04:46:11;;;;;;;7.53;4.05;;;;;;;-20.15;74.42;98829.47;5132541;27;20141;-68
2024/01/05 04:48:37;;;;;;;9.73;4.83;;;;;;;-20.18;74.58;98826.09;5098099;27;20043;-69
2024/01/05 04:51:07;;;;;;;10.10;4.88;;;;;;;-20.15;74.68;98826.09;5081944;27;20054;-67
2024/01/05 04:53:33;;;;;;;15.25;5.82;;;;;;;-20.13;74.80;98837.06;5098714;27;20380;-68
2024/01/05 04:55:59;;;;;;;11.10;5.90;;;;;;;-20.15;74.19;98841.25;5098197;27;20047;-68
2024/01/05 04:58:25;;;;;;;8.70;4.87;;;;;;;-20.15;74.42;98837.06;5115298;27;20099;-68
2024/01/05 05:00:52;;;;;;;6.20;4.53;;;;;;;-20.22;74.44;98816.84;5097658;27;20054;-69
2024/01/05 05:03:17;;;;;;;9.25;4.60;;;;;;;-20.09;74.22;98836.19;5132177;27;20543;-68
2024/01/05 05:05:44;;;;;;;5.57;3.70;;;;;;;-20.11;74.15;98841.25;5098362;27;20047;-68
2024/01/05 05:08:13;;;;;;;3.50;3.13;;;;;;;-20.12;74.25;98836.19;5081139;27;20043;-68
2024/01/05 05:10:41;;;;;;;4.80;3.60;;;;;;;-20.07;74.29;98839.59;5115333;27;20058;-69
2024/01/05 05:13:07;;;;;;;12.35;3.55;;;;;;;-20.08;74.09;98850.53;5059878;28;20047;-68
2024/01/05 05:15:33;;;;;;;10.03;4.73;;;;;;;-20.08;73.49;98851.34;5060438;28;20529;-67
2024/01/05 05:17:58;;;;;;;10.27;4.70;;;;;;;-20.05;73.57;98853.06;5076930;28;20086;-67
2024/01/05 05:20:24;;;;;;;10.50;4.33;;;;;;;-20.00;74.01;98848.88;5043512;28;20051;-68
2024/01/05 05:22:51;;;;;;;7.45;4.32;;;;;;;-19.96;73.80;98853.97;5077057;28;20051;-68
2024/01/05 05:25:17;;;;;;;6.57;3.90;;;;;;;-19.90;74.00;98848.06;5060161;28;20141;-68
2024/01/05 05:27:44;;;;;;;9.93;4.78;;;;;;;-19.88;73.44;98862.38;5060491;28;20055;-68
2024/01/05 05:30:10;;;;;;;5.43;3.57;;;;;;;-19.83;73.26;98854.84;5052942;28;20424;-68
2024/01/05 05:32:36;;;;;;;7.63;4.07;;;;;;;-19.85;73.04;98854.81;5053319;28;20052;-68
2024/01/05 05:35:02;;;;;;;5.47;3.53;;;;;;;-19.85;72.73;98859.88;5049633;28;20283;-68
2024/01/05 05:37:29;;;;;;;8.48;4.28;;;;;;;-19.78;72.92;98858.22;5034464;28;20057;-68
2024/01/05 05:39:55;;;;;;;8.35;4.13;;;;;;;-19.78;72.97;98855.69;5000382;28;20155;-70
2024/01/05 05:42:21;;;;;;;5.43;3.53;;;;;;;-19.79;72.45;98850.63;5016488;28;20056;-68
2024/01/05 05:44:46;;;;;;;3.53;3.23;;;;;;;-19.81;72.82;98853.16;5048856;28;20052;-68
2024/01/05 05:47:12;;;;;;;8.50;4.73;;;;;;;-19.82;73.26;98856.53;5036929;28;20110;-67
2024/01/05 05:49:38;;;;;;;11.20;4.97;;;;;;;-19.75;73.65;98860.75;5036419;28;20109;-68
2024/01/05 05:52:05;;;;;;;7.53;4.10;;;;;;;-19.70;73.51;98851.50;5036673;28;20040;-68
2024/01/05 05:54:31;;;;;;;10.80;4.57;;;;;;;-19.66;73.51;98848.16;5052656;28;20052;-67
2024/01/05 05:56:57;;;;;;;5.90;3.88;;;;;;;-19.65;73.28;98847.34;5037675;28;20510;-67
2024/01/05 05:59:23;;;;;;;4.47;3.63;;;;;;;-19.60;72.94;98853.25;5037511;28;20045;-65
2024/01/05 06:01:49;;;;;;;8.63;3.72;;;;;;;-19.56;73.78;98859.97;5035674;28;20093;-67
2024/01/05 06:04:17;;;;;;;11.60;4.50;;;;;;;-19.48;73.04;98852.41;5073985;28;20044;-67
2024/01/05 06:06:43;;;;;;;7.20;4.00;;;;;;;-19.57;72.93;98848.19;5102370;28;20095;-67
2024/01/05 06:09:13;;;;;;;5.77;3.90;;;;;;;-19.45;73.70;98843.16;5097997;28;20538;-68
2024/01/05 06:11:39;;;;;;;6.97;4.40;;;;;;;-19.43;75.33;98851.56;5093434;28;20124;-67
2024/01/05 06:14:05;;;;;;;8.87;3.80;;;;;;;-19.29;77.40;98867.63;5095840;28;20105;-66
2024/01/05 06:16:31;;;;;;;11.37;5.47;;;;;;;-19.21;79.20;98860.00;5063170;28;20051;-66
2024/01/05 06:18:58;;;;;;;6.70;4.27;;;;;;;-19.08;79.10;98859.19;5096234;28;20656;-67
2024/01/05 06:21:25;;;;;;;6.72;3.78;;;;;;;-18.97;76.95;98865.13;5063381;28;20060;-67
2024/01/05 06:23:52;;;;;;;10.20;4.45;;;;;;;-18.96;74.88;98854.16;5063145;28;20418;-67
2024/01/05 06:26:18;;;;;;;8.48;4.18;;;;;;;-18.89;73.60;98864.25;5079932;28;20047;-67
2024/01/05 06:28:44;;;;;;;12.45;5.07;;;;;;;-18.85;72.64;98865.13;5096806;28;20047;-68
2024/01/05 06:31:10;;;;;;;10.07;5.53;;;;;;;-18.73;72.04;98875.25;5080032;28;20097;-70
2024/01/05 06:33:36;;;;;;;11.73;4.57;;;;;;;-18.73;71.16;98881.16;5063560;28;20039;-67
2024/01/05 06:36:01;;;;;;;7.17;4.80;;;;;;;-18.65;71.11;98882.00;5082457;28;20313;-66
2024/01/05 06:38:27;;;;;;;6.83;4.47;;;;;;;-18.60;70.48;98880.28;5069966;28;20051;-66
2024/01/05 06:40:53;;;;;;;8.63;4.83;;;;;;;-18.47;70.87;98881.13;5085857;28;20475;-67
2024/01/05 06:43:19;;;;;;;7.13;4.30;;;;;;;-18.37;70.08;98890.41;5128971;27;20469;-67
2024/01/05 06:45:44;;;;;;;4.90;3.60;;;;;;;-18.30;69.63;98890.38;5135402;27;20035;-67
2024/01/05 06:48:13;;;;;;;7.93;4.18;;;;;;;-18.20;70.09;98894.56;5102000;27;20047;-67
2024/01/05 06:50:39;;;;;;;6.90;4.63;;;;;;;-18.00;69.29;98895.38;5118156;27;20047;-67
2024/01/05 06:53:06;;;;;;;8.10;4.03;;;;;;;-17.76;67.84;98902.06;5100463;27;20043;-67
2024/01/05 06:55:32;;;;;;;7.03;3.70;;;;;;;-17.42;67.45;98897.66;5084103;27;20046;-66
2024/01/05 06:58:02;;;;;;;7.87;3.57;;;;;;;-16.86;65.96;98899.03;5083547;27;20039;-66
2024/01/05 07:00:28;;;;;;;10.93;4.43;;;;;;;-15.76;65.47;98902.25;5050198;27;20493;-65
2024/01/05 07:02:55;;;;;;;8.68;4.50;;;;;;;-14.46;62.94;98907.25;5084413;27;20149;-69
2024/01/05 07:05:22;;;;;;;7.50;4.67;;;;;;;-13.41;58.66;98899.38;5072299;28;20053;-68
2024/01/05 07:07:52;;;;;;;7.00;4.23;;;;;;;-12.78;55.07;98908.22;5055371;28;20369;-68
2024/01/05 07:10:23;;;;;;;11.77;4.80;;;;;;;-12.17;52.53;98905.91;5071946;28;20832;-68
2024/01/05 07:12:49;;;;;;;7.97;4.60;;;;;;;-11.67;50.08;98908.06;5038693;28;20290;-70
2024/01/05 07:15:16;;;;;;;6.00;4.03;;;;;;;-11.80;47.48;98909.25;5038718;28;20291;-70
2024/01/05 07:17:50;;;;;;;12.07;4.63;;;;;;;-12.47;45.96;98916.91;5039628;28;20101;-70
2024/01/05 07:20:15;;;;;;;14.67;5.60;;;;;;;-13.23;44.84;98911.78;5038696;28;20302;-69
2024/01/05 07:22:41;;;;;;;8.23;4.67;;;;;;;-13.69;45.51;98908.44;5039004;28;20298;-68
2024/01/05 07:25:09;;;;;;;10.67;5.33;;;;;;;-14.04;45.68;98900.56;5054742;28;20238;-67
2024/01/05 07:27:36;;;;;;;10.00;5.30;;;;;;;-14.40;45.80;98915.66;5038687;28;20399;-69
2024/01/05 07:30:05;;;;;;;9.83;5.03;;;;;;;-14.17;46.69;98912.69;5015112;28;20306;-67
2024/01/05 07:32:52;;;;;;;10.73;5.80;;;;;;;-12.68;47.12;98922.47;5017792;28;20400;-67
2024/01/05 07:35:18;;;;;;;8.63;5.10;;;;;;;-11.07;46.52;98903.75;4984435;28;20374;-68
2024/01/05 07:37:46;;;;;;;9.87;5.10;;;;;;;-9.50;45.28;98916.69;5031641;28;20752;-68
2024/01/05 07:40:14;;;;;;;10.10;5.00;;;;;;;-8.09;42.79;98913.88;5011871;28;20359;-69
2024/01/05 07:42:41;;;;;;;8.40;5.80;;;;;;;-7.07;40.48;98908.63;5012218;28;20307;-70
2024/01/05 07:45:07;;;;;;;10.17;5.77;;;;;;;-6.06;38.06;98914.25;5012164;28;20080;-69
2024/01/05 07:47:40;;;;;;;10.77;5.17;;;;;;;-4.97;36.03;98918.16;4980785;28;20054;-67
2024/01/05 07:50:06;;;;;;;8.13;5.40;;;;;;;-4.03;34.20;98906.09;4979138;28;20389;-68
2024/01/05 07:52:32;;;;;;;9.00;5.37;;;;;;;-3.00;32.21;98900.88;4979154;28;20125;-68
2024/01/05 07:54:58;;;;;;;10.57;5.40;;;;;;;-2.05;30.46;98898.34;4995229;28;20053;-68
2024/01/05 07:57:24;;;;;;;9.70;5.70;;;;;;;-1.21;28.80;98894.47;5011376;28;20141;-70
2024/01/05 07:59:51;;;;;;;11.07;5.60;;;;;;;-0.98;27.46;98901.56;4995617;28;20066;-69
2024/01/05 08:02:18;;;;;;;9.53;4.97;;;;;;;-0.61;26.48;98892.88;5001583;28;20045;-68
2024/01/05 08:04:44;;;;;;;8.67;5.23;;;;;;;-0.32;25.90;98902.94;5002517;28;20400;-68
2024/01/05 08:07:13;;;;;;;9.23;5.30;;;;;;;-0.33;25.25;98895.22;5018601;28;20059;-68
2024/01/05 08:09:43;;;;;;;9.07;5.80;;;;;;;0.06;24.60;98900.22;5035690;28;20040;-67
2024/01/05 08:12:09;;;;;;;8.50;5.50;;;;;;;0.50;23.98;98907.41;5040621;28;20127;-67
2024/01/05 08:14:34;;;;;;;9.17;5.17;;;;;;;1.27;23.60;98912.81;5041353;28;20534;-69
2024/01/05 08:17:00;;;;;;;7.90;5.30;;;;;;;1.99;22.62;98911.47;5024182;28;20456;-75
2024/01/05 08:19:27;;;;;;;9.83;5.73;;;;;;;2.42;21.67;98907.06;5024464;28;20042;-75
2024/01/05 08:21:52;;;;;;;10.30;6.07;;;;;;;2.92;20.95;98907.16;5050872;27;20469;-68
2024/01/05 08:24:18;;;;;;;9.05;6.10;;;;;;;2.87;20.52;98908.53;5098982;27;20039;-68
2024/01/05 08:26:46;;;;;;;9.93;5.90;;;;;;;2.96;20.22;98900.72;5099964;27;20092;-75
2024/01/05 08:29:21;;;;;;;8.68;4.82;;;;;;;3.72;20.02;98905.50;5134224;27;20055;-75
2024/01/05 08:31:55;;;;;;;10.27;5.25;;;;;;;4.02;19.27;98910.72;5095523;28;20050;-72
2024/01/05 08:34:21;;;;;;;8.77;6.10;;;;;;;4.38;18.81;98904.81;5132275;27;20027;-76
2024/01/05 08:36:47;;;;;;;8.85;5.68;;;;;;;4.65;18.34;98904.16;5096133;27;20543;-70
2024/01/05 08:39:12;;;;;;;9.65;5.22;;;;;;;4.98;18.09;98895.81;5132691;27;20050;-74
2024/01/05 08:41:42;;;;;;;9.02;6.00;;;;;;;5.45;17.67;98896.66;5099137;27;20076;-74
2024/01/05 08:44:14;;;;;;;10.57;5.72;;;;;;;5.58;17.43;98905.88;5080227;27;20046;-68
2024/01/05 08:46:41;;;;;;;8.57;5.20;;;;;;;4.86;17.20;98896.91;5115603;27;20062;-76
2024/01/05 08:49:08;;;;;;;10.30;5.90;;;;;;;4.59;16.71;98888.91;5132213;27;20046;-74
2024/01/05 08:51:42;;;;;;;11.07;5.70;;;;;;;4.72;16.95;98882.41;5097151;27;20136;-75
2024/01/05 08:54:09;;;;;;;10.00;6.20;;;;;;;4.94;16.96;98889.16;5131374;27;20115;-72
2024/01/05 08:56:37;;;;;;;11.23;6.43;;;;;;;5.25;16.72;98885.38;5094407;27;20653;-74
2024/01/05 08:59:04;;;;;;;9.88;6.25;;;;;;;5.57;16.49;98883.16;5044090;27;20031;-74
2024/01/05 09:01:32;;;;;;;8.98;5.78;;;;;;;6.09;16.64;98886.97;5061029;27;20043;-74
2024/01/05 09:03:58;;;;;;;10.32;5.72;;;;;;;6.53;15.75;98879.00;5054749;27;20043;-74
2024/01/05 09:06:24;;;;;;;11.32;6.25;;;;;;;6.99;15.58;98885.00;5071623;27;20031;-74
2024/01/05 09:08:50;;;;;;;8.88;5.78;;;;;;;7.53;15.26;98876.78;5064921;27;20115;-75
2024/01/05 09:11:17;;;;;;;13.60;7.78;;;;;;;7.61;14.95;98880.25;5097805;27;20053;-75
2024/01/05 09:13:43;;;;;;;13.57;7.55;;;;;;;7.46;14.94;98878.38;5051152;28;20075;-73
2024/01/05 09:16:08;;;;;;;12.77;8.05;;;;;;;7.60;14.61;98877.78;5081864;28;20509;-75
2024/01/05 09:18:35;;;;;;;11.70;7.95;;;;;;;7.91;14.47;98871.81;5047565;28;20062;-72
2024/01/05 09:21:02;;;;;;;12.02;7.32;;;;;;;8.26;14.56;98866.34;5056934;28;20499;-74
2024/01/05 09:23:29;;;;;;;12.73;8.38;;;;;;;8.38;14.38;98858.91;5056471;28;20040;-73
2024/01/05 09:25:54;;;;;;;13.77;8.07;;;;;;;8.94;14.12;98866.88;5039293;28;20063;-74
2024/01/05 09:28:21;;;;;;;15.82;9.05;;;;;;;9.01;13.72;98861.75;5039464;28;20094;-76
2024/01/05 09:30:49;;;;;;;10.73;7.70;;;;;;;8.94;13.87;98858.94;5082432;28;20044;-74
2024/01/05 09:33:16;;;;;;;11.05;6.93;;;;;;;9.01;13.75;98867.88;5046276;28;20126;-73
2024/01/05 09:35:42;;;;;;;10.07;6.82;;;;;;;9.14;13.69;98860.25;5071665;28;20138;-74
2024/01/05 09:38:27;;;;;;;10.93;7.13;;;;;;;9.09;13.35;98854.63;5048833;28;20517;-74
2024/01/05 09:41:13;;;;;;;11.98;6.65;;;;;;;8.91;13.63;98853.16;5061709;28;20178;-75
2024/01/05 09:44:00;;;;;;;11.63;7.20;;;;;;;8.48;13.40;98844.56;5052528;28;20047;-75
2024/01/05 09:46:46;;;;;;;9.98;6.30;;;;;;;8.16;13.84;98856.84;5069240;28;20039;-78
2024/01/05 09:49:37;;;;;;;12.98;6.75;;;;;;;8.33;13.57;98853.28;5089284;27;20047;-75
2024/01/05 09:52:28;;;;;;;11.80;6.30;;;;;;;8.49;13.47;98855.94;5088070;28;20314;-77
2024/01/05 09:55:16;;;;;;;11.55;6.55;;;;;;;9.00;13.49;98841.56;5090085;28;20051;-75
2024/01/05 09:58:25;;;;;;;11.63;6.90;;;;;;;9.19;13.33;98838.56;5075325;28;20052;-74
2024/01/05 10:01:18;;;;;;;11.38;6.60;;;;;;;9.14;13.30;98839.06;5043741;28;20095;-74
2024/01/05 10:04:07;;;;;;;11.38;6.70;;;;;;;8.91;13.34;98839.91;5058928;28;20052;-73
2024/01/05 10:07:02;;;;;;;10.60;6.25;;;;;;;8.89;13.26;98831.31;5055264;28;20063;-75
2024/01/05 10:09:54;;;;;;;10.07;5.75;;;;;;;8.77;13.50;98833.47;5066482;28;20135;-75
2024/01/05 10:12:40;;;;;;;;;;;;;;;8.71;13.32;98839.44;5065288;28;20456;-73
2024/01/05 10:15:53;;;;;;;9.82;5.50;;;;;;;8.55;13.57;98834.94;5060457;28;19919;-77
2024/01/05 10:18:39;;;;;;;10.00;5.55;;;;;;;8.24;13.48;98830.47;5076602;28;20146;-75
2024/01/05 10:21:26;;;;;;;10.82;6.45;;;;;;;8.32;13.36;98841.88;5075380;28;20046;-74
2024/01/05 10:24:22;;;;;;;10.70;6.60;;;;;;;8.37;13.77;98846.66;5086859;28;20811;-75
2024/01/05 10:27:10;;;;;;;11.55;6.65;;;;;;;8.32;13.63;98838.38;5091795;28;20285;-75
2024/01/05 10:29:57;;;;;;;12.57;7.03;;;;;;;8.19;14.07;98840.66;5068632;28;20035;-75
2024/01/05 10:32:42;;;;;;;10.25;5.90;;;;;;;8.28;14.15;98835.28;5068687;28;20502;-72
2024/01/05 10:35:30;;;;;;;12.02;6.60;;;;;;;8.28;13.88;98842.38;5083319;27;20116;-71
2024/01/05 10:38:16;;;;;;;12.05;6.72;;;;;;;8.12;13.52;98839.66;5122307;27;20061;-75
2024/01/05 10:41:06;;;;;;;12.45;6.15;;;;;;;7.91;13.60;98839.25;5098515;27;20054;-74
2024/01/05 10:43:52;;;;;;;9.93;6.07;;;;;;;7.79;13.80;98833.47;5071205;27;20775;-73
2024/01/05 10:46:42;;;;;;;12.35;6.47;;;;;;;7.72;13.88;98840.34;5080791;27;20478;-75
2024/01/05 10:49:30;;;;;;;10.82;6.65;;;;;;;7.59;13.84;98841.78;5096577;27;20050;-74
2024/01/05 10:52:24;;;;;;;11.77;6.40;;;;;;;7.38;13.78;98847.44;5068008;28;20163;-71
2024/01/05 10:55:11;;;;;;;9.80;6.25;;;;;;;7.14;14.09;98852.59;5090314;28;20123;-73
2024/01/05 10:58:00;;;;;;;9.68;6.00;;;;;;;6.79;14.07;98853.53;5067066;28;20063;-77
2024/01/05 11:00:52;;;;;;;10.32;6.28;;;;;;;6.77;14.26;98839.66;5070860;28;20055;-75
2024/01/05 11:03:43;;;;;;;9.70;5.80;;;;;;;7.00;14.39;98841.75;5103555;28;20047;-72
2024/01/05 11:06:32;;;;;;;8.38;5.13;;;;;;;7.02;14.04;98845.09;5077072;28;20047;-75
2024/01/05 11:09:33;;;;;;;6.78;5.20;;;;;;;6.88;14.34;98844.69;5070181;28;20058;-73
2024/01/05 11:12:21;;;;;;;10.25;5.85;;;;;;;6.43;14.53;98848.41;5066619;28;20376;-72
2024/01/05 11:15:24;;;;;;;9.18;5.30;;;;;;;6.07;15.29;98850.22;5105618;28;20044;-74
2024/01/05 11:18:33;;;;;;;10.00;6.32;;;;;;;5.39;15.75;98850.69;5086393;28;20103;-77
2024/01/05 11:21:22;;;;;;;9.45;5.50;;;;;;;4.65;16.10;98843.66;5065606;28;20078;-71
2024/01/05 11:24:10;;;;;;;10.00;5.95;;;;;;;4.10;16.83;98844.34;5101609;28;20437;-74
2024/01/05 11:26:56;;;;;;;14.50;7.53;;;;;;;3.46;17.54;98844.75;5073453;28;20122;-72
2024/01/05 11:29:45;;;;;;;14.00;7.27;;;;;;;3.21;17.69;98833.91;5042935;28;20131;-77
2024/01/05 11:32:47;;;;;;;12.07;6.77;;;;;;;3.01;18.07;98838.19;5069865;28;20405;-74
2024/01/05 11:35:51;;;;;;;11.73;6.60;;;;;;;2.83;17.96;98837.13;5088152;28;20380;-75
2024/01/05 11:38:47;;;;;;;14.73;7.30;;;;;;;2.50;18.04;98839.97;5079534;28;20362;-75
2024/01/05 11:41:34;;;;;;;13.30;6.57;;;;;;;2.04;18.14;98838.63;5078304;28;20075;-75